Beckwith, West Virginia
Current Conditions -  °F | °C
As of 8:51 PM on Thursday 20 Nov 2014 (Local Time) from KBKW Reporting Station
Clear Clear  
Wind Chill: 20°   Ceiling: Unl
Heat Index: 29°   Visibility: 10mi
Dew Point: 14°   Wind: 10mph
Humidity: 54%   Direction: 300°WNW
Pressure: 30.08"   Gusts: NA
Location:  38.0317°N, 81.0282°W
Report Text: KBKW 210151Z AUTO 30009KT 10SM CLR M02/M10 A3008 RMK AO2 SLP211 T10171100
Loading
Personal Weather Stations






























Interactive Weather Map New forecast layout! Learn more

10-Day Weather Forecast

Advertisements
Track Severe Weather on mobile